sensor_id;sensor_type;location;lat;lon;timestamp;P1;durP1;ratioP1;P2;durP2;ratioP2
76023;SDS011;64719;52.124;6.226;2023-06-04T00:00:16;2.90;;;1.38;;
76023;SDS011;64719;52.124;6.226;2023-06-04T00:02:44;2.72;;;1.40;;
76023;SDS011;64719;52.124;6.226;2023-06-04T00:05:11;3.92;;;1.65;;
76023;SDS011;64719;52.124;6.226;2023-06-04T00:07:37;3.13;;;1.63;;
76023;SDS011;64719;52.124;6.226;2023-06-04T00:10:04;2.47;;;1.48;;
76023;SDS011;64719;52.124;6.226;2023-06-04T00:12:31;2.08;;;1.40;;
76023;SDS011;64719;52.124;6.226;2023-06-04T00:14:58;3.08;;;1.50;;
76023;SDS011;64719;52.124;6.226;2023-06-04T00:17:24;3.25;;;1.42;;
76023;SDS011;64719;52.124;6.226;2023-06-04T00:19:52;2.65;;;1.45;;
76023;SDS011;64719;52.124;6.226;2023-06-04T00:22:19;3.28;;;1.58;;
76023;SDS011;64719;52.124;6.226;2023-06-04T00:24:45;2.83;;;1.40;;
76023;SDS011;64719;52.124;6.226;2023-06-04T00:27:12;3.97;;;1.65;;
76023;SDS011;64719;52.124;6.226;2023-06-04T00:29:38;3.28;;;1.40;;
76023;SDS011;64719;52.124;6.226;2023-06-04T00:32:05;2.60;;;1.50;;
76023;SDS011;64719;52.124;6.226;2023-06-04T00:34:32;2.58;;;1.20;;
76023;SDS011;64719;52.124;6.226;2023-06-04T00:37:00;2.65;;;1.40;;
76023;SDS011;64719;52.124;6.226;2023-06-04T00:39:27;3.58;;;1.98;;
76023;SDS011;64719;52.124;6.226;2023-06-04T00:41:54;3.97;;;1.70;;
76023;SDS011;64719;52.124;6.226;2023-06-04T00:44:20;3.38;;;1.40;;
76023;SDS011;64719;52.124;6.226;2023-06-04T00:46:48;5.43;;;1.80;;
76023;SDS011;64719;52.124;6.226;2023-06-04T00:49:15;3.78;;;1.60;;
76023;SDS011;64719;52.124;6.226;2023-06-04T00:51:41;2.78;;;1.40;;
76023;SDS011;64719;52.124;6.226;2023-06-04T00:54:09;3.75;;;1.80;;
76023;SDS011;64719;52.124;6.226;2023-06-04T00:56:39;3.47;;;1.90;;
76023;SDS011;64719;52.124;6.226;2023-06-04T00:59:05;2.80;;;1.90;;
76023;SDS011;64719;52.124;6.226;2023-06-04T01:01:39;2.30;;;1.50;;
76023;SDS011;64719;52.124;6.226;2023-06-04T01:04:12;2.30;;;1.50;;
76023;SDS011;64719;52.124;6.226;2023-06-04T01:06:44;2.78;;;1.67;;
76023;SDS011;64719;52.124;6.226;2023-06-04T01:09:17;3.15;;;1.63;;
76023;SDS011;64719;52.124;6.226;2023-06-04T01:11:44;3.10;;;1.70;;
76023;SDS011;64719;52.124;6.226;2023-06-04T01:14:10;3.38;;;1.52;;
76023;SDS011;64719;52.124;6.226;2023-06-04T01:16:39;2.45;;;1.40;;
76023;SDS011;64719;52.124;6.226;2023-06-04T01:19:11;2.97;;;1.52;;
76023;SDS011;64719;52.124;6.226;2023-06-04T01:21:59;2.60;;;1.48;;
76023;SDS011;64719;52.124;6.226;2023-06-04T01:24:30;3.78;;;1.90;;
76023;SDS011;64719;52.124;6.226;2023-06-04T01:27:02;3.00;;;1.42;;
76023;SDS011;64719;52.124;6.226;2023-06-04T01:29:29;3.33;;;1.58;;
76023;SDS011;64719;52.124;6.226;2023-06-04T01:31:57;6.63;;;1.80;;
76023;SDS011;64719;52.124;6.226;2023-06-04T01:34:25;2.80;;;1.50;;
76023;SDS011;64719;52.124;6.226;2023-06-04T01:36:51;3.33;;;1.50;;
76023;SDS011;64719;52.124;6.226;2023-06-04T01:39:18;2.78;;;1.70;;
76023;SDS011;64719;52.124;6.226;2023-06-04T01:41:46;3.08;;;1.40;;
76023;SDS011;64719;52.124;6.226;2023-06-04T01:44:12;5.13;;;1.70;;
76023;SDS011;64719;52.124;6.226;2023-06-04T01:46:39;3.70;;;1.42;;
76023;SDS011;64719;52.124;6.226;2023-06-04T01:49:05;7.38;;;1.92;;
76023;SDS011;64719;52.124;6.226;2023-06-04T01:51:32;3.25;;;1.92;;
76023;SDS011;64719;52.124;6.226;2023-06-04T01:53:58;3.70;;;1.90;;
76023;SDS011;64719;52.124;6.226;2023-06-04T01:56:25;3.33;;;2.00;;
76023;SDS011;64719;52.124;6.226;2023-06-04T01:58:53;2.75;;;1.60;;
76023;SDS011;64719;52.124;6.226;2023-06-04T02:01:20;3.13;;;1.55;;
76023;SDS011;64719;52.124;6.226;2023-06-04T02:03:46;3.22;;;1.65;;
76023;SDS011;64719;52.124;6.226;2023-06-04T02:06:13;4.05;;;1.80;;
76023;SDS011;64719;52.124;6.226;2023-06-04T02:08:40;4.28;;;1.42;;
76023;SDS011;64719;52.124;6.226;2023-06-04T02:11:07;3.90;;;2.30;;
76023;SDS011;64719;52.124;6.226;2023-06-04T02:13:34;4.63;;;1.55;;
76023;SDS011;64719;52.124;6.226;2023-06-04T02:16:02;2.85;;;1.67;;
76023;SDS011;64719;52.124;6.226;2023-06-04T02:18:28;3.85;;;1.90;;
76023;SDS011;64719;52.124;6.226;2023-06-04T02:20:56;7.55;;;1.73;;
76023;SDS011;64719;52.124;6.226;2023-06-04T02:23:23;4.68;;;1.70;;
76023;SDS011;64719;52.124;6.226;2023-06-04T02:25:49;4.70;;;1.65;;
76023;SDS011;64719;52.124;6.226;2023-06-04T02:28:16;2.70;;;1.42;;
76023;SDS011;64719;52.124;6.226;2023-06-04T02:30:43;3.25;;;1.63;;
76023;SDS011;64719;52.124;6.226;2023-06-04T02:33:12;3.95;;;1.80;;
76023;SDS011;64719;52.124;6.226;2023-06-04T02:35:39;2.90;;;1.67;;
76023;SDS011;64719;52.124;6.226;2023-06-04T02:38:06;3.88;;;1.77;;
76023;SDS011;64719;52.124;6.226;2023-06-04T02:40:33;4.53;;;1.95;;
76023;SDS011;64719;52.124;6.226;2023-06-04T02:42:59;6.15;;;1.77;;
76023;SDS011;64719;52.124;6.226;2023-06-04T02:45:26;4.85;;;2.08;;
76023;SDS011;64719;52.124;6.226;2023-06-04T02:47:53;4.40;;;2.00;;
76023;SDS011;64719;52.124;6.226;2023-06-04T02:50:21;5.00;;;2.03;;
76023;SDS011;64719;52.124;6.226;2023-06-04T02:52:48;3.67;;;1.90;;
76023;SDS011;64719;52.124;6.226;2023-06-04T02:55:14;2.78;;;1.63;;
76023;SDS011;64719;52.124;6.226;2023-06-04T02:57:41;2.90;;;1.60;;
76023;SDS011;64719;52.124;6.226;2023-06-04T03:00:09;3.45;;;1.88;;
76023;SDS011;64719;52.124;6.226;2023-06-04T03:02:37;2.42;;;1.50;;
76023;SDS011;64719;52.124;6.226;2023-06-04T03:05:08;4.18;;;2.00;;
76023;SDS011;64719;52.124;6.226;2023-06-04T03:07:37;2.95;;;1.80;;
76023;SDS011;64719;52.124;6.226;2023-06-04T03:10:03;5.13;;;2.13;;
76023;SDS011;64719;52.124;6.226;2023-06-04T03:12:31;2.90;;;2.10;;
76023;SDS011;64719;52.124;6.226;2023-06-04T03:14:57;3.90;;;1.88;;
76023;SDS011;64719;52.124;6.226;2023-06-04T03:17:25;4.82;;;2.33;;
76023;SDS011;64719;52.124;6.226;2023-06-04T03:19:51;4.00;;;2.00;;
76023;SDS011;64719;52.124;6.226;2023-06-04T03:22:18;4.20;;;2.28;;
76023;SDS011;64719;52.124;6.226;2023-06-04T03:24:46;7.45;;;2.63;;
76023;SDS011;64719;52.124;6.226;2023-06-04T03:27:13;4.22;;;1.83;;
76023;SDS011;64719;52.124;6.226;2023-06-04T03:29:39;3.95;;;2.20;;
76023;SDS011;64719;52.124;6.226;2023-06-04T03:32:06;4.82;;;2.30;;
76023;SDS011;64719;52.124;6.226;2023-06-04T03:34:33;4.25;;;1.98;;
76023;SDS011;64719;52.124;6.226;2023-06-04T03:37:00;3.22;;;1.83;;
76023;SDS011;64719;52.124;6.226;2023-06-04T03:39:26;5.03;;;2.13;;
76023;SDS011;64719;52.124;6.226;2023-06-04T03:41:54;3.63;;;2.05;;
76023;SDS011;64719;52.124;6.226;2023-06-04T03:44:21;4.28;;;2.05;;
76023;SDS011;64719;52.124;6.226;2023-06-04T03:46:48;4.18;;;2.70;;
76023;SDS011;64719;52.124;6.226;2023-06-04T03:49:14;4.40;;;2.45;;
76023;SDS011;64719;52.124;6.226;2023-06-04T03:51:42;4.32;;;2.30;;
76023;SDS011;64719;52.124;6.226;2023-06-04T03:54:08;5.90;;;2.60;;
76023;SDS011;64719;52.124;6.226;2023-06-04T03:56:35;4.75;;;2.08;;
76023;SDS011;64719;52.124;6.226;2023-06-04T03:59:03;3.80;;;2.33;;
76023;SDS011;64719;52.124;6.226;2023-06-04T04:01:29;4.82;;;2.53;;
76023;SDS011;64719;52.124;6.226;2023-06-04T04:03:56;3.75;;;2.20;;
76023;SDS011;64719;52.124;6.226;2023-06-04T04:06:22;4.30;;;2.63;;
76023;SDS011;64719;52.124;6.226;2023-06-04T04:08:49;3.88;;;2.33;;
76023;SDS011;64719;52.124;6.226;2023-06-04T04:11:15;4.53;;;2.25;;
76023;SDS011;64719;52.124;6.226;2023-06-04T04:13:44;4.03;;;2.25;;
76023;SDS011;64719;52.124;6.226;2023-06-04T04:16:13;5.18;;;2.67;;
76023;SDS011;64719;52.124;6.226;2023-06-04T04:18:40;3.40;;;1.70;;
76023;SDS011;64719;52.124;6.226;2023-06-04T04:21:08;2.90;;;1.98;;
76023;SDS011;64719;52.124;6.226;2023-06-04T04:23:37;3.45;;;2.20;;
76023;SDS011;64719;52.124;6.226;2023-06-04T04:26:04;4.38;;;2.33;;
76023;SDS011;64719;52.124;6.226;2023-06-04T04:28:31;5.22;;;2.40;;
76023;SDS011;64719;52.124;6.226;2023-06-04T04:30:59;3.33;;;2.15;;
76023;SDS011;64719;52.124;6.226;2023-06-04T04:33:28;4.50;;;2.40;;
76023;SDS011;64719;52.124;6.226;2023-06-04T04:35:57;6.22;;;2.40;;
76023;SDS011;64719;52.124;6.226;2023-06-04T04:38:25;3.83;;;2.45;;
76023;SDS011;64719;52.124;6.226;2023-06-04T04:40:53;6.28;;;2.63;;
76023;SDS011;64719;52.124;6.226;2023-06-04T04:43:28;3.53;;;2.42;;
76023;SDS011;64719;52.124;6.226;2023-06-04T04:45:55;4.25;;;2.30;;
76023;SDS011;64719;52.124;6.226;2023-06-04T04:48:22;5.28;;;2.50;;
76023;SDS011;64719;52.124;6.226;2023-06-04T04:50:50;3.72;;;2.22;;
76023;SDS011;64719;52.124;6.226;2023-06-04T04:53:16;4.97;;;2.35;;
76023;SDS011;64719;52.124;6.226;2023-06-04T04:55:43;5.82;;;2.30;;
76023;SDS011;64719;52.124;6.226;2023-06-04T04:58:10;3.75;;;2.60;;
76023;SDS011;64719;52.124;6.226;2023-06-04T05:00:36;5.63;;;2.47;;
76023;SDS011;64719;52.124;6.226;2023-06-04T05:03:03;6.03;;;2.33;;
76023;SDS011;64719;52.124;6.226;2023-06-04T05:05:31;5.07;;;2.45;;
76023;SDS011;64719;52.124;6.226;2023-06-04T05:07:59;3.70;;;2.38;;
76023;SDS011;64719;52.124;6.226;2023-06-04T05:10:26;3.42;;;2.33;;
76023;SDS011;64719;52.124;6.226;2023-06-04T05:12:52;6.55;;;2.67;;
76023;SDS011;64719;52.124;6.226;2023-06-04T05:15:19;5.30;;;2.78;;
76023;SDS011;64719;52.124;6.226;2023-06-04T05:17:46;3.53;;;2.50;;
76023;SDS011;64719;52.124;6.226;2023-06-04T05:20:13;5.68;;;2.70;;
76023;SDS011;64719;52.124;6.226;2023-06-04T05:22:40;4.43;;;2.72;;
76023;SDS011;64719;52.124;6.226;2023-06-04T05:27:36;5.28;;;2.47;;
76023;SDS011;64719;52.124;6.226;2023-06-04T05:30:02;5.03;;;2.60;;
76023;SDS011;64719;52.124;6.226;2023-06-04T05:32:29;8.23;;;2.90;;
76023;SDS011;64719;52.124;6.226;2023-06-04T05:34:57;5.90;;;2.58;;
76023;SDS011;64719;52.124;6.226;2023-06-04T05:37:24;4.20;;;2.40;;
76023;SDS011;64719;52.124;6.226;2023-06-04T05:39:52;6.50;;;2.63;;
76023;SDS011;64719;52.124;6.226;2023-06-04T05:42:19;4.18;;;2.60;;
76023;SDS011;64719;52.124;6.226;2023-06-04T05:44:46;6.13;;;2.70;;
76023;SDS011;64719;52.124;6.226;2023-06-04T05:47:13;5.70;;;3.20;;
76023;SDS011;64719;52.124;6.226;2023-06-04T05:49:40;3.67;;;2.15;;
76023;SDS011;64719;52.124;6.226;2023-06-04T05:52:06;4.13;;;2.50;;
76023;SDS011;64719;52.124;6.226;2023-06-04T05:54:33;5.07;;;2.88;;
76023;SDS011;64719;52.124;6.226;2023-06-04T05:56:59;4.28;;;2.33;;
76023;SDS011;64719;52.124;6.226;2023-06-04T05:59:27;3.85;;;2.70;;
76023;SDS011;64719;52.124;6.226;2023-06-04T06:01:54;5.65;;;2.80;;
76023;SDS011;64719;52.124;6.226;2023-06-04T06:04:20;4.78;;;2.45;;
76023;SDS011;64719;52.124;6.226;2023-06-04T06:06:47;4.65;;;2.50;;
76023;SDS011;64719;52.124;6.226;2023-06-04T06:09:14;4.15;;;2.40;;
76023;SDS011;64719;52.124;6.226;2023-06-04T06:14:07;5.10;;;2.58;;
76023;SDS011;64719;52.124;6.226;2023-06-04T06:16:35;3.30;;;2.30;;
76023;SDS011;64719;52.124;6.226;2023-06-04T06:19:02;2.97;;;2.33;;
76023;SDS011;64719;52.124;6.226;2023-06-04T06:21:29;5.00;;;2.78;;
76023;SDS011;64719;52.124;6.226;2023-06-04T06:23:56;4.10;;;2.60;;
76023;SDS011;64719;52.124;6.226;2023-06-04T06:26:22;6.63;;;2.67;;
76023;SDS011;64719;52.124;6.226;2023-06-04T06:28:49;4.68;;;2.67;;
76023;SDS011;64719;52.124;6.226;2023-06-04T06:31:15;3.95;;;2.53;;
76023;SDS011;64719;52.124;6.226;2023-06-04T06:33:43;6.00;;;2.78;;
76023;SDS011;64719;52.124;6.226;2023-06-04T06:36:10;4.43;;;2.35;;
76023;SDS011;64719;52.124;6.226;2023-06-04T06:38:37;6.70;;;2.72;;
76023;SDS011;64719;52.124;6.226;2023-06-04T06:41:04;4.72;;;2.50;;
76023;SDS011;64719;52.124;6.226;2023-06-04T06:43:31;4.82;;;2.42;;
76023;SDS011;64719;52.124;6.226;2023-06-04T06:45:58;5.93;;;2.75;;
76023;SDS011;64719;52.124;6.226;2023-06-04T06:50:57;5.10;;;2.40;;
76023;SDS011;64719;52.124;6.226;2023-06-04T06:53:23;4.93;;;2.40;;
76023;SDS011;64719;52.124;6.226;2023-06-04T06:55:50;5.32;;;2.20;;
76023;SDS011;64719;52.124;6.226;2023-06-04T06:58:16;4.47;;;2.15;;
76023;SDS011;64719;52.124;6.226;2023-06-04T07:00:43;4.13;;;2.30;;
76023;SDS011;64719;52.124;6.226;2023-06-04T07:03:09;3.58;;;2.10;;
76023;SDS011;64719;52.124;6.226;2023-06-04T07:05:36;4.28;;;2.50;;
76023;SDS011;64719;52.124;6.226;2023-06-04T07:08:04;4.40;;;2.13;;
76023;SDS011;64719;52.124;6.226;2023-06-04T07:10:30;3.97;;;2.05;;
76023;SDS011;64719;52.124;6.226;2023-06-04T07:12:57;3.42;;;2.00;;
76023;SDS011;64719;52.124;6.226;2023-06-04T07:15:23;4.30;;;2.35;;
76023;SDS011;64719;52.124;6.226;2023-06-04T07:17:50;6.75;;;2.33;;
76023;SDS011;64719;52.124;6.226;2023-06-04T07:20:16;5.43;;;2.20;;
76023;SDS011;64719;52.124;6.226;2023-06-04T07:22:43;4.80;;;2.20;;
76023;SDS011;64719;52.124;6.226;2023-06-04T07:25:11;3.85;;;2.28;;
76023;SDS011;64719;52.124;6.226;2023-06-04T07:27:38;5.50;;;2.17;;
76023;SDS011;64719;52.124;6.226;2023-06-04T07:30:06;5.38;;;2.17;;
76023;SDS011;64719;52.124;6.226;2023-06-04T07:32:33;4.68;;;2.38;;
76023;SDS011;64719;52.124;6.226;2023-06-04T07:35:00;4.47;;;2.20;;
76023;SDS011;64719;52.124;6.226;2023-06-04T07:37:27;5.68;;;2.65;;
76023;SDS011;64719;52.124;6.226;2023-06-04T07:39:54;5.82;;;2.35;;
76023;SDS011;64719;52.124;6.226;2023-06-04T07:42:22;4.70;;;2.20;;
76023;SDS011;64719;52.124;6.226;2023-06-04T07:44:48;4.93;;;2.50;;
76023;SDS011;64719;52.124;6.226;2023-06-04T07:47:15;3.70;;;1.95;;
76023;SDS011;64719;52.124;6.226;2023-06-04T07:49:41;5.38;;;2.40;;
76023;SDS011;64719;52.124;6.226;2023-06-04T07:52:08;3.58;;;2.00;;
76023;SDS011;64719;52.124;6.226;2023-06-04T07:54:34;4.80;;;2.00;;
76023;SDS011;64719;52.124;6.226;2023-06-04T07:57:01;3.78;;;2.40;;
76023;SDS011;64719;52.124;6.226;2023-06-04T07:59:28;5.20;;;2.30;;
76023;SDS011;64719;52.124;6.226;2023-06-04T08:01:55;4.30;;;2.47;;
76023;SDS011;64719;52.124;6.226;2023-06-04T08:04:22;4.32;;;2.35;;
76023;SDS011;64719;52.124;6.226;2023-06-04T08:06:48;4.28;;;2.22;;
76023;SDS011;64719;52.124;6.226;2023-06-04T08:09:15;5.57;;;2.08;;
76023;SDS011;64719;52.124;6.226;2023-06-04T08:11:42;3.60;;;2.15;;
76023;SDS011;64719;52.124;6.226;2023-06-04T08:14:09;4.80;;;2.13;;
76023;SDS011;64719;52.124;6.226;2023-06-04T08:16:37;6.25;;;2.28;;
76023;SDS011;64719;52.124;6.226;2023-06-04T08:19:04;5.57;;;2.30;;
76023;SDS011;64719;52.124;6.226;2023-06-04T08:21:32;3.45;;;2.22;;
76023;SDS011;64719;52.124;6.226;2023-06-04T08:23:58;2.30;;;1.50;;
76023;SDS011;64719;52.124;6.226;2023-06-04T08:26:25;3.72;;;1.95;;
76023;SDS011;64719;52.124;6.226;2023-06-04T08:28:52;4.88;;;1.90;;
76023;SDS011;64719;52.124;6.226;2023-06-04T08:33:47;4.78;;;1.80;;
76023;SDS011;64719;52.124;6.226;2023-06-04T08:36:14;2.65;;;1.70;;
76023;SDS011;64719;52.124;6.226;2023-06-04T08:38:41;3.85;;;1.90;;
76023;SDS011;64719;52.124;6.226;2023-06-04T08:41:09;4.07;;;1.90;;
76023;SDS011;64719;52.124;6.226;2023-06-04T08:43:41;3.50;;;1.70;;
76023;SDS011;64719;52.124;6.226;2023-06-04T08:46:09;3.33;;;1.48;;
76023;SDS011;64719;52.124;6.226;2023-06-04T08:48:37;3.78;;;1.30;;
76023;SDS011;64719;52.124;6.226;2023-06-04T08:51:06;3.55;;;1.80;;
76023;SDS011;64719;52.124;6.226;2023-06-04T08:53:34;5.45;;;2.08;;
76023;SDS011;64719;52.124;6.226;2023-06-04T08:56:01;3.78;;;1.73;;
76023;SDS011;64719;52.124;6.226;2023-06-04T08:58:29;3.80;;;1.80;;
76023;SDS011;64719;52.124;6.226;2023-06-04T09:00:58;3.25;;;1.60;;
76023;SDS011;64719;52.124;6.226;2023-06-04T09:03:26;3.78;;;1.75;;
76023;SDS011;64719;52.124;6.226;2023-06-04T09:05:54;2.40;;;1.42;;
76023;SDS011;64719;52.124;6.226;2023-06-04T09:08:24;3.40;;;1.67;;
76023;SDS011;64719;52.124;6.226;2023-06-04T09:10:50;4.20;;;1.60;;
76023;SDS011;64719;52.124;6.226;2023-06-04T09:13:21;3.47;;;1.63;;
76023;SDS011;64719;52.124;6.226;2023-06-04T09:15:57;3.53;;;1.58;;
76023;SDS011;64719;52.124;6.226;2023-06-04T09:18:25;3.35;;;1.40;;
76023;SDS011;64719;52.124;6.226;2023-06-04T09:20:59;4.75;;;1.83;;
76023;SDS011;64719;52.124;6.226;2023-06-04T09:23:28;3.00;;;1.17;;
76023;SDS011;64719;52.124;6.226;2023-06-04T09:25:55;3.03;;;1.30;;
76023;SDS011;64719;52.124;6.226;2023-06-04T09:28:22;4.32;;;1.40;;
76023;SDS011;64719;52.124;6.226;2023-06-04T09:30:51;4.13;;;1.33;;
76023;SDS011;64719;52.124;6.226;2023-06-04T09:33:18;3.90;;;1.50;;
76023;SDS011;64719;52.124;6.226;2023-06-04T09:35:52;2.40;;;1.20;;
76023;SDS011;64719;52.124;6.226;2023-06-04T09:38:19;2.10;;;1.10;;
76023;SDS011;64719;52.124;6.226;2023-06-04T09:40:47;2.55;;;1.30;;
76023;SDS011;64719;52.124;6.226;2023-06-04T09:43:20;3.35;;;1.38;;
76023;SDS011;64719;52.124;6.226;2023-06-04T09:45:48;3.63;;;1.38;;
76023;SDS011;64719;52.124;6.226;2023-06-04T09:48:18;2.30;;;1.10;;
76023;SDS011;64719;52.124;6.226;2023-06-04T09:50:45;2.72;;;1.23;;
76023;SDS011;64719;52.124;6.226;2023-06-04T09:53:14;6.32;;;1.30;;
76023;SDS011;64719;52.124;6.226;2023-06-04T09:55:41;2.80;;;1.35;;
76023;SDS011;64719;52.124;6.226;2023-06-04T09:58:09;2.72;;;1.17;;
76023;SDS011;64719;52.124;6.226;2023-06-04T10:00:37;3.00;;;1.02;;
76023;SDS011;64719;52.124;6.226;2023-06-04T10:05:32;4.97;;;1.23;;
76023;SDS011;64719;52.124;6.226;2023-06-04T10:07:59;1.55;;;0.88;;
76023;SDS011;64719;52.124;6.226;2023-06-04T10:10:30;2.00;;;1.10;;
76023;SDS011;64719;52.124;6.226;2023-06-04T10:13:04;2.55;;;1.08;;
76023;SDS011;64719;52.124;6.226;2023-06-04T10:15:34;3.08;;;1.08;;
76023;SDS011;64719;52.124;6.226;2023-06-04T10:18:02;2.78;;;1.20;;
76023;SDS011;64719;52.124;6.226;2023-06-04T10:20:29;3.42;;;1.33;;
76023;SDS011;64719;52.124;6.226;2023-06-04T10:22:56;1.70;;;0.93;;
76023;SDS011;64719;52.124;6.226;2023-06-04T10:25:24;2.58;;;1.08;;
76023;SDS011;64719;52.124;6.226;2023-06-04T10:27:52;1.42;;;0.95;;
76023;SDS011;64719;52.124;6.226;2023-06-04T10:30:19;2.70;;;1.30;;
76023;SDS011;64719;52.124;6.226;2023-06-04T10:32:47;1.83;;;0.98;;
76023;SDS011;64719;52.124;6.226;2023-06-04T10:35:14;2.20;;;1.00;;
76023;SDS011;64719;52.124;6.226;2023-06-04T10:37:41;2.03;;;0.95;;
76023;SDS011;64719;52.124;6.226;2023-06-04T10:40:07;1.95;;;1.20;;
76023;SDS011;64719;52.124;6.226;2023-06-04T10:45:04;2.50;;;1.15;;
76023;SDS011;64719;52.124;6.226;2023-06-04T10:47:33;1.38;;;0.80;;
76023;SDS011;64719;52.124;6.226;2023-06-04T10:50:10;3.65;;;1.17;;
76023;SDS011;64719;52.124;6.226;2023-06-04T10:52:37;2.17;;;1.10;;
76023;SDS011;64719;52.124;6.226;2023-06-04T10:55:05;2.28;;;1.00;;
76023;SDS011;64719;52.124;6.226;2023-06-04T10:57:34;2.03;;;1.00;;
76023;SDS011;64719;52.124;6.226;2023-06-04T11:00:01;2.00;;;1.13;;
76023;SDS011;64719;52.124;6.226;2023-06-04T11:02:35;2.28;;;1.20;;
76023;SDS011;64719;52.124;6.226;2023-06-04T11:05:01;3.10;;;1.10;;
76023;SDS011;64719;52.124;6.226;2023-06-04T11:07:41;2.55;;;1.20;;
76023;SDS011;64719;52.124;6.226;2023-06-04T11:10:09;2.00;;;1.05;;
76023;SDS011;64719;52.124;6.226;2023-06-04T11:12:43;3.42;;;1.20;;
76023;SDS011;64719;52.124;6.226;2023-06-04T11:15:10;2.63;;;1.10;;
76023;SDS011;64719;52.124;6.226;2023-06-04T11:17:37;3.28;;;1.63;;
76023;SDS011;64719;52.124;6.226;2023-06-04T11:20:04;3.00;;;1.30;;
76023;SDS011;64719;52.124;6.226;2023-06-04T11:22:43;2.13;;;1.20;;
76023;SDS011;64719;52.124;6.226;2023-06-04T11:25:16;3.45;;;1.40;;
76023;SDS011;64719;52.124;6.226;2023-06-04T11:27:43;2.20;;;1.00;;
76023;SDS011;64719;52.124;6.226;2023-06-04T11:30:10;2.05;;;0.90;;
76023;SDS011;64719;52.124;6.226;2023-06-04T11:32:38;3.55;;;1.00;;
76023;SDS011;64719;52.124;6.226;2023-06-04T11:35:05;3.72;;;1.48;;
76023;SDS011;64719;52.124;6.226;2023-06-04T11:37:32;3.17;;;1.27;;
76023;SDS011;64719;52.124;6.226;2023-06-04T11:42:30;1.70;;;1.08;;
76023;SDS011;64719;52.124;6.226;2023-06-04T11:44:56;1.60;;;0.98;;
76023;SDS011;64719;52.124;6.226;2023-06-04T11:49:53;2.80;;;1.30;;
76023;SDS011;64719;52.124;6.226;2023-06-04T11:52:21;3.03;;;1.00;;
76023;SDS011;64719;52.124;6.226;2023-06-04T11:54:48;2.50;;;1.38;;
76023;SDS011;64719;52.124;6.226;2023-06-04T11:57:16;3.13;;;1.30;;
76023;SDS011;64719;52.124;6.226;2023-06-04T11:59:43;2.30;;;1.20;;
76023;SDS011;64719;52.124;6.226;2023-06-04T12:02:10;2.38;;;1.30;;
76023;SDS011;64719;52.124;6.226;2023-06-04T12:04:36;2.47;;;1.08;;
76023;SDS011;64719;52.124;6.226;2023-06-04T12:07:03;2.67;;;1.23;;
76023;SDS011;64719;52.124;6.226;2023-06-04T12:09:32;10.85;;;6.18;;
76023;SDS011;64719;52.124;6.226;2023-06-04T12:12:00;1.52;;;1.10;;
76023;SDS011;64719;52.124;6.226;2023-06-04T12:14:29;5.70;;;2.25;;
76023;SDS011;64719;52.124;6.226;2023-06-04T12:16:56;5.05;;;2.72;;
76023;SDS011;64719;52.124;6.226;2023-06-04T12:19:23;2.92;;;1.10;;
76023;SDS011;64719;52.124;6.226;2023-06-04T12:21:58;3.50;;;1.70;;
76023;SDS011;64719;52.124;6.226;2023-06-04T12:24:26;3.50;;;1.63;;
76023;SDS011;64719;52.124;6.226;2023-06-04T12:27:00;4.43;;;1.98;;
76023;SDS011;64719;52.124;6.226;2023-06-04T12:29:29;2.22;;;1.23;;
76023;SDS011;64719;52.124;6.226;2023-06-04T12:32:01;2.30;;;1.30;;
76023;SDS011;64719;52.124;6.226;2023-06-04T12:34:28;2.17;;;1.38;;
76023;SDS011;64719;52.124;6.226;2023-06-04T12:36:55;1.90;;;1.17;;
76023;SDS011;64719;52.124;6.226;2023-06-04T12:39:21;2.35;;;1.30;;
76023;SDS011;64719;52.124;6.226;2023-06-04T12:41:48;2.05;;;1.35;;
76023;SDS011;64719;52.124;6.226;2023-06-04T12:44:14;3.28;;;1.15;;
76023;SDS011;64719;52.124;6.226;2023-06-04T12:46:42;4.45;;;1.30;;
76023;SDS011;64719;52.124;6.226;2023-06-04T12:49:09;2.88;;;1.38;;
76023;SDS011;64719;52.124;6.226;2023-06-04T12:51:37;3.38;;;1.40;;
76023;SDS011;64719;52.124;6.226;2023-06-04T12:54:03;2.92;;;1.80;;
76023;SDS011;64719;52.124;6.226;2023-06-04T12:56:30;2.20;;;1.50;;
76023;SDS011;64719;52.124;6.226;2023-06-04T12:58:57;2.75;;;1.45;;
76023;SDS011;64719;52.124;6.226;2023-06-04T13:01:23;2.58;;;1.25;;
76023;SDS011;64719;52.124;6.226;2023-06-04T13:03:51;2.42;;;1.20;;
76023;SDS011;64719;52.124;6.226;2023-06-04T13:06:18;3.45;;;1.40;;
76023;SDS011;64719;52.124;6.226;2023-06-04T13:08:44;3.42;;;1.20;;
76023;SDS011;64719;52.124;6.226;2023-06-04T13:11:11;2.08;;;1.30;;
76023;SDS011;64719;52.124;6.226;2023-06-04T13:16:04;2.65;;;1.27;;
76023;SDS011;64719;52.124;6.226;2023-06-04T13:18:31;2.53;;;1.52;;
76023;SDS011;64719;52.124;6.226;2023-06-04T13:20:58;1.73;;;1.10;;
76023;SDS011;64719;52.124;6.226;2023-06-04T13:23:25;3.45;;;1.30;;
76023;SDS011;64719;52.124;6.226;2023-06-04T13:25:51;6.28;;;1.40;;
76023;SDS011;64719;52.124;6.226;2023-06-04T13:28:18;3.05;;;2.10;;
76023;SDS011;64719;52.124;6.226;2023-06-04T13:30:45;3.22;;;1.52;;
76023;SDS011;64719;52.124;6.226;2023-06-04T13:33:11;2.70;;;1.20;;
76023;SDS011;64719;52.124;6.226;2023-06-04T13:35:38;2.63;;;1.33;;
76023;SDS011;64719;52.124;6.226;2023-06-04T13:38:06;4.32;;;1.50;;
76023;SDS011;64719;52.124;6.226;2023-06-04T13:40:33;2.78;;;1.40;;
76023;SDS011;64719;52.124;6.226;2023-06-04T13:43:00;2.00;;;1.30;;
76023;SDS011;64719;52.124;6.226;2023-06-04T13:45:27;2.40;;;1.20;;
76023;SDS011;64719;52.124;6.226;2023-06-04T13:47:53;2.83;;;1.50;;
76023;SDS011;64719;52.124;6.226;2023-06-04T13:50:20;1.95;;;1.10;;
76023;SDS011;64719;52.124;6.226;2023-06-04T13:52:46;2.63;;;1.50;;
76023;SDS011;64719;52.124;6.226;2023-06-04T13:55:14;3.72;;;1.38;;
76023;SDS011;64719;52.124;6.226;2023-06-04T13:57:41;3.40;;;1.48;;
76023;SDS011;64719;52.124;6.226;2023-06-04T14:00:08;2.30;;;1.30;;
76023;SDS011;64719;52.124;6.226;2023-06-04T14:02:35;2.13;;;1.20;;
76023;SDS011;64719;52.124;6.226;2023-06-04T14:05:01;2.40;;;1.40;;
76023;SDS011;64719;52.124;6.226;2023-06-04T14:07:28;3.30;;;1.70;;
76023;SDS011;64719;52.124;6.226;2023-06-04T14:09:54;2.30;;;1.23;;
76023;SDS011;64719;52.124;6.226;2023-06-04T14:12:22;2.30;;;1.40;;
76023;SDS011;64719;52.124;6.226;2023-06-04T14:14:49;3.22;;;1.52;;
76023;SDS011;64719;52.124;6.226;2023-06-04T14:17:16;2.25;;;1.55;;
76023;SDS011;64719;52.124;6.226;2023-06-04T14:19:44;2.75;;;1.33;;
76023;SDS011;64719;52.124;6.226;2023-06-04T14:24:37;3.15;;;1.50;;
76023;SDS011;64719;52.124;6.226;2023-06-04T14:27:05;2.33;;;1.30;;
76023;SDS011;64719;52.124;6.226;2023-06-04T14:29:34;2.03;;;1.30;;
76023;SDS011;64719;52.124;6.226;2023-06-04T14:32:01;3.95;;;1.70;;
76023;SDS011;64719;52.124;6.226;2023-06-04T14:34:27;2.80;;;1.50;;
76023;SDS011;64719;52.124;6.226;2023-06-04T14:36:54;3.60;;;1.83;;
76023;SDS011;64719;52.124;6.226;2023-06-04T14:39:22;3.15;;;1.40;;
76023;SDS011;64719;52.124;6.226;2023-06-04T14:41:49;3.03;;;1.52;;
76023;SDS011;64719;52.124;6.226;2023-06-04T14:44:17;2.35;;;1.50;;
76023;SDS011;64719;52.124;6.226;2023-06-04T14:46:44;4.35;;;1.48;;
76023;SDS011;64719;52.124;6.226;2023-06-04T14:49:11;2.40;;;1.35;;
76023;SDS011;64719;52.124;6.226;2023-06-04T14:51:38;3.30;;;1.45;;
76023;SDS011;64719;52.124;6.226;2023-06-04T14:54:04;2.78;;;1.30;;
76023;SDS011;64719;52.124;6.226;2023-06-04T14:56:31;2.83;;;1.67;;
76023;SDS011;64719;52.124;6.226;2023-06-04T14:58:58;4.90;;;2.90;;
76023;SDS011;64719;52.124;6.226;2023-06-04T15:01:25;2.97;;;1.40;;
76023;SDS011;64719;52.124;6.226;2023-06-04T15:03:53;3.33;;;1.48;;
76023;SDS011;64719;52.124;6.226;2023-06-04T15:06:20;2.30;;;1.48;;
76023;SDS011;64719;52.124;6.226;2023-06-04T15:08:46;2.35;;;1.40;;
76023;SDS011;64719;52.124;6.226;2023-06-04T15:11:13;3.63;;;1.35;;
76023;SDS011;64719;52.124;6.226;2023-06-04T15:13:40;3.10;;;1.35;;